NACIONALNO OTVORENO PRVENSTVO HRVATSKE U KARTINGU
NAGRADA ZANATLIJA '09
Novi Marof, 07.06.2009.

KLASA I
Poz. S.b. Vozač Klub Nac. Krug Vrijeme Zaostatak Bod.
1. 107 Adrian Sekulić Podravina Koprivnica HR 4 5:34,977 0:00,000 -
2. 110 Matija Habek KU Novi Marof HR 4 5:35,284 0:00,307 -
3. 103 Matija Kovačić KK 1 Zagreb HR 4 5:44,291 0:09,314 -
4. 105 Jan Pokos AK Speedy HR 4 5:56,111 0:21,134 -
5. 108 Dorian Vargović AMKK Cobra HR 4 5:59,160 0:24,183 -
6. 111 Tin Vorkapić KK Koprivnica HR 4 6:13,588 0:38,611 -
 
KLASA II - 1. UTRKA
Poz. S.b. Vozač Klub Nac. Krug Vrijeme Zaostatak Bod.
1. 206 Damian Sekulić KU Novi Marof HR 8 9:42,403 0:00,000 20
2. 216 Fran Tisaj KK Koprivnica HR 8 10:04,548 0:22,145 15
3. 209 Petra Lesički Podravina Koprivnica HR 8 10:14,289 0:31,886 12
4. 211 Corina Lukša AMKK Cobra HR 8 10:29,761 0:47,358 10
5. 217 Muhammad Pličanić AK Info Kart HR 8 10:42,179 0:59,776 8
6. 212 Luka Moslavac AMKK Cobra HR 7 9:42,703 1 krug 6
 
KLASA II - 2. UTRKA
Poz. S.b. Vozač Klub Nac. Krug Vrijeme Zaostatak Bod.
1. 206 Damian Sekulić KU Novi Marof HR 8 10:23,857 0:00,000 20
2. 211 Corina Lukša AMKK Cobra HR 8 10:46,788 0:22,931 15
3. 209 Petra Lesički Podravina Koprivnica HR 8 10:52,642 0:28,785 12
4. 216 Fran Tisaj KK Koprivnica HR 8 10:53,377 0:29,520 10
5. 217 Muhammad Pličanić AK Info Kart HR 8 11:06,891 0:43,034 8
6. 212 Luka Moslavac AMKK Cobra HR 8 11:29,209 1:05,352 6
 
KLASA III - 1. UTRKA
Klasa nije bodovana zbog premalog broja vozača.
Poz. S.b. Vozač Klub Nac. Krug Vrijeme Zaostatak Bod.
1. 301 Juraj Kovačić KK 1 Zagreb HR 5 6:05,979 0:00,000 0
2. 305 William Mucak KK 1 Zagreb HR 5 6:06,752 0:00,773 0
3. 304 Dino Paleka KK Koprivnica HR 5 6:19,736 0:13,757 0
4. 303 Moni Petrović AK Speedy HR 5 6:19,866 0:13,887 0
 
KLASA III - 2. UTRKA
Klasa nije bodovana zbog premalog broja vozača.
Poz. S.b. Vozač Klub Nac. Krug Vrijeme Zaostatak Bod.
1. 301 Juraj Kovačić KK 1 Zagreb HR 5 5:43,187 0:00,000 0
2. 303 Moni Petrović AK Speedy HR 5 5:47,699 0:04,512 0
3. 304 Dino Paleka KK Koprivnica HR 5 5:47,978 0:04,791 0
4. 305 William Mucak KK 1 Zagreb HR 5 5:53,078 0:09,891 0
 
KLASA V - 1. UTRKA
Poz. S.b. Vozač Klub Nac. Krug Vrijeme Zaostatak Bod.
1. 507 Martin Kodrić KK 1 Zagreb HR 10 10:39,466 0:00,000 20
2. 501 Nikola Belohradski AMD Zanatlija HR 10 10:42,918 0:03,452 15
3. 510 Luka Đurđ KK Koprivnica HR 10 10:52,303 0:12,837 12
4. 504 Tomislav Pavlić KK 1 Zagreb HR 10 11:00,221 0:20,755 10
5. 509 Mislav Mikulec Podravina Koprivnica HR 9 11:15,703 1 krug 8
 
KLASA V - 2. UTRKA
Poz. S.b. Vozač Klub Nac. Krug Vrijeme Zaostatak Bod.
1. 509 Mislav Mikulec Podravina Koprivnica HR 10 9:08,895 0:00,000 20
2. 501 Nikola Belohradski AMD Zanatlija HR 10 9:11,260 0:02,365 15
3. 504 Tomislav Pavlić KK 1 Zagreb HR 10 9:26,762 0:17,867 12
4. 507 Martin Kodrić KK 1 Zagreb HR 10 9:42,305 0:33,410 10
- 510 Luka Đurđ KK Koprivnica HR 9 isključen -
 
KLASA VII - 1. UTRKA
Poz. S.b. Vozač Klub Nac. Krug Vrijeme Zaostatak Bod.
1. 709 Branimir Rojko KK Koprivnica HR 13 13:46,719 0:00,000 20
2. 717 Miroslav Šajnić KK 1 Zagreb HR 13 13:58,356 0:11,637 15
3. 719 Žarko Martinjak KK Koprivnica HR 13 13:58,540 0:11,821 12
4. 705 Renato Dujmović AMK Buzet HR 13 14:07,935 0:21,216 10
5. 715 Ivan Kodrić KK 1 Zagreb HR 13 14:31,770 0:45,051 8
6. 704 Zlatko Banić SAK Split HR 13 14:33,855 0:47,136 6
7. 716 Siniša Mišić AMKK Cobra HR 12 13:55,621 1 krug 4
- 720 Zlatko Kovačić KK Koprivnica HR 0 nije startao -
 
KLASA VII - 2. UTRKA
Poz. S.b. Vozač Klub Nac. Krug Vrijeme Zaostatak Bod.
1. 715 Ivan Kodrić KK 1 Zagreb HR 13 11:40,309 0:00,000 20
2. 717 Miroslav Šajnić KK 1 Zagreb HR 13 11:45,789 0:05,480 15
3. 709 Branimir Rojko KK Koprivnica HR 13 11:48,320 0:08,011 12
4. 719 Žarko Martinjak KK Koprivnica HR 13 12:00,033 0:19,724 10
5. 705 Renato Dujmović AMK Buzet HR 13 12:00,845 0:20,536 8
6. 704 Zlatko Banić SAK Split HR 12 11:50,175 1 krug 6
7. 720 Zlatko Kovačić KK Koprivnica HR 12 12:13,089 1 krug 4
8. 716 Siniša Mišić AMKK Cobra HR 11 11:47,090 2 kruga 3
 
KLASA VIII - 1. UTRKA
Poz. S.b. Vozač Klub Nac. Krug Vrijeme Zaostatak Bod.
1. 802 Renco Majdak KK 1 Zagreb HR 10 10:23,586 0:00,000 20
2. 813 Borna Vlašić Podravina Koprivnica HR 10 10:31,322 0:07,736 15
3. 801 Kristijan Habulin KK 1 Zagreb HR 10 10:42,843 0:19,257 12
4. 804 Karlo Golub KK 1 Zagreb HR 10 10:43,739 0:20,153 10
5. 811 Sanjin Trope AK Quickly HR 10 10:53,755 0:30,169 8
6. 805 Sven Gorup AMD Zanatlija HR 10 10:55,906 0:32,320 6
7. 812 Igor Vargović AMKK Cobra HR 10 11:24,359 1:00,773 4
 
KLASA VIII - 2. UTRKA
Poz. S.b. Vozač Klub Nac. Krug Vrijeme Zaostatak Bod.
1. 801 Kristijan Habulin KK 1 Zagreb HR 10 8:52,288 0:00,000 20
2. 813 Borna Vlašić Podravina Koprivnica HR 10 8:53,159 0:00,871 15
3. 811 Sanjin Trope AK Quickly HR 10 8:59,513 0:07,225 12
4. 804 Karlo Golub KK 1 Zagreb HR 10 9:05,984 0:13,696 10
5. 812 Igor Vargović AMKK Cobra HR 10 9:34,721 0:42,433 8
- 805 Sven Gorup AMD Zanatlija HR 1 odustao -
- 802 Renco Majdak KK 1 Zagreb HR 1 odustao -
 
KLASA IX - 1. UTRKA
Klasa nije bodovana zbog premalog broja vozača.
Poz. S.b. Vozač Klub Nac. Krug Vrijeme Zaostatak Bod.
1. 915 Tomislav Lovrenc Podravina Koprivnica HR 6 7:06,161 0:00,000 0
2. 904 Alan Vorkapić KK Koprivnica HR 6 7:17,168 0:11,007 0
3. 908 Ivijan Rajnović AMKK Cobra HR 6 7:19,793 0:13,632 0
4. 916 Tarik Pličanić AK Info Kart HR 5 7:27,488 1 krug 0
- 901 Samir Smailagić AK Info Kart HR 0 nije startao -
- 903 Vladimir Vukobrat AK Info Kart HR 0 nije startao -
- 907 Tomislav Kelbel KK Koprivnica HR 0 nije startao -
 
KLASA IX - 2. UTRKA
Poz. S.b. Vozač Klub Nac. Krug Vrijeme Zaostatak Bod.
1. 901 Samir Smailagić AK Info Kart HR 10 10:08,561 0:00,000 20
2. 915 Tomislav Lovrenc Podravina Koprivnica HR 10 10:14,188 0:05,627 15
3. 907 Tomislav Kelbel KK Koprivnica HR 10 10:20,126 0:11,565 12
4. 908 Ivijan Rajnović AMKK Cobra HR 10 10:21,758 0:13,197 10
5. 916 Tarik Pličanić AK Info Kart HR 10 10:23,800 0:15,239 8
6. 904 Alan Vorkapić KK Koprivnica HR 10 10:23,865 0:15,304 6
- 903 Vladimir Vukobrat AK Info Kart HR 1 odustao -
 
PRVENSTVO HRVATSKE